createdAt,value
2022-07-27T00:01:24.514Z,31.30
2022-07-27T00:03:53.546Z,31.47
2022-07-27T00:06:22.360Z,31.66
2022-07-27T00:08:52.599Z,31.72
2022-07-27T00:11:21.433Z,32.10
2022-07-27T00:13:50.238Z,32.39
2022-07-27T00:16:19.225Z,32.42
2022-07-27T00:18:48.196Z,32.49
2022-07-27T00:21:17.065Z,32.58
2022-07-27T00:23:45.969Z,32.72
2022-07-27T00:26:16.323Z,32.55
2022-07-27T00:28:45.167Z,32.92
2022-07-27T00:31:14.068Z,33.09
2022-07-27T00:33:42.957Z,33.35
2022-07-27T00:36:11.948Z,33.62
2022-07-27T00:38:40.975Z,33.96
2022-07-27T00:41:09.837Z,34.02
2022-07-27T00:43:59.604Z,34.13
2022-07-27T00:46:29.849Z,34.33
2022-07-27T00:48:58.918Z,33.87
2022-07-27T00:51:27.968Z,34.06
2022-07-27T00:53:57.677Z,34.62
2022-07-27T00:56:26.737Z,35.06
2022-07-27T00:58:55.662Z,35.37
2022-07-27T01:01:26.220Z,35.46
2022-07-27T01:03:55.181Z,36.25
2022-07-27T01:06:26.939Z,36.04
2022-07-27T01:09:17.419Z,36.22
2022-07-27T01:11:46.948Z,36.58
2022-07-27T01:14:18.288Z,36.37
2022-07-27T01:16:48.568Z,35.78
2022-07-27T01:19:17.479Z,36.19
2022-07-27T01:21:47.931Z,36.55
2022-07-27T01:24:16.929Z,36.64
2022-07-27T01:26:46.454Z,36.64
2022-07-27T01:29:15.629Z,36.83
2022-07-27T01:31:44.787Z,37.39
2022-07-27T01:34:13.731Z,37.43
2022-07-27T01:36:42.544Z,37.68
2022-07-27T01:39:14.548Z,37.78
2022-07-27T01:41:43.672Z,38.23
2022-07-27T01:44:12.488Z,37.94
2022-07-27T01:46:41.425Z,38.09
2022-07-27T01:49:10.611Z,38.35
2022-07-27T01:51:39.635Z,38.39
2022-07-27T01:54:08.701Z,38.60
2022-07-27T01:56:39.090Z,38.83
2022-07-27T01:59:08.117Z,39.06
2022-07-27T02:01:45.139Z,39.01
2022-07-27T02:04:13.973Z,39.29
2022-07-27T02:06:42.980Z,39.56
2022-07-27T02:09:12.016Z,39.66
2022-07-27T02:12:00.025Z,39.82
2022-07-27T02:14:28.928Z,39.90
2022-07-27T02:16:57.810Z,40.11
2022-07-27T02:19:28.592Z,40.25
2022-07-27T02:21:57.408Z,40.16
2022-07-27T02:24:26.266Z,40.27
2022-07-27T02:26:56.556Z,39.94
2022-07-27T02:29:25.325Z,40.05
2022-07-27T02:31:54.148Z,40.03
2022-07-27T02:34:22.983Z,39.97
2022-07-27T02:36:51.829Z,40.03
2022-07-27T02:39:21.702Z,40.08
2022-07-27T02:41:50.480Z,40.45
2022-07-27T02:44:20.801Z,40.38
2022-07-27T02:46:49.736Z,40.43
2022-07-27T02:49:18.600Z,41.07
2022-07-27T02:51:52.350Z,41.22
2022-07-27T02:54:22.067Z,41.43
2022-07-27T02:56:50.888Z,41.40
2022-07-27T02:59:21.460Z,41.21
2022-07-27T03:01:51.475Z,41.12
2022-07-27T03:04:20.896Z,41.10
2022-07-27T03:06:49.893Z,40.98
2022-07-27T03:09:18.716Z,40.92
2022-07-27T03:11:47.630Z,41.19
2022-07-27T03:14:16.413Z,41.17
2022-07-27T03:16:46.756Z,40.85
2022-07-27T03:19:15.523Z,40.46
2022-07-27T03:21:44.413Z,40.39
2022-07-27T03:24:13.243Z,40.05
2022-07-27T03:26:42.116Z,40.11
2022-07-27T03:29:11.224Z,40.33
2022-07-27T03:31:40.309Z,40.44
2022-07-27T03:34:11.364Z,40.56
2022-07-27T03:36:40.232Z,40.34
2022-07-27T03:39:09.294Z,40.38
2022-07-27T03:41:38.318Z,40.50
2022-07-27T03:44:07.392Z,40.55
2022-07-27T03:46:36.278Z,40.69
2022-07-27T03:49:14.786Z,41.02
2022-07-27T03:51:45.791Z,41.32
2022-07-27T03:54:14.870Z,41.19
2022-07-27T03:56:43.738Z,41.34
2022-07-27T03:59:13.000Z,41.43
2022-07-27T04:01:45.518Z,41.73
2022-07-27T04:04:14.439Z,41.63
2022-07-27T04:06:44.771Z,41.79
2022-07-27T04:09:14.564Z,42.03
2022-07-27T04:11:50.518Z,41.94
2022-07-27T04:14:20.336Z,41.43
2022-07-27T04:16:49.221Z,41.61
2022-07-27T04:19:18.141Z,41.86
2022-07-27T04:21:48.461Z,42.05
2022-07-27T04:24:17.340Z,41.99
2022-07-27T04:26:46.093Z,42.07
2022-07-27T04:29:19.965Z,42.13
2022-07-27T04:31:49.635Z,42.02
2022-07-27T04:34:18.459Z,42.30
2022-07-27T04:36:50.152Z,42.54
2022-07-27T04:39:19.094Z,42.80
2022-07-27T04:41:47.895Z,42.78
2022-07-27T04:44:16.652Z,42.79
2022-07-27T04:46:45.469Z,42.83
2022-07-27T04:49:14.787Z,42.87
2022-07-27T04:51:46.065Z,42.81
2022-07-27T04:54:17.331Z,42.85
2022-07-27T04:56:46.271Z,42.71
2022-07-27T04:59:15.295Z,42.45
2022-07-27T05:01:44.418Z,42.23
2022-07-27T05:04:13.293Z,42.12
2022-07-27T05:06:42.140Z,41.79
2022-07-27T05:09:11.119Z,41.66
2022-07-27T05:11:41.656Z,41.51
2022-07-27T05:14:21.248Z,42.01
2022-07-27T05:16:50.569Z,42.26
2022-07-27T05:19:19.523Z,42.30
2022-07-27T05:21:48.407Z,42.50
2022-07-27T05:24:17.299Z,42.61
2022-07-27T05:26:48.934Z,42.90
2022-07-27T05:29:18.052Z,43.01
2022-07-27T05:31:46.943Z,42.87
2022-07-27T05:34:15.868Z,42.94
2022-07-27T05:36:44.694Z,42.74
2022-07-27T05:39:14.052Z,42.11
2022-07-27T05:41:43.508Z,41.67
2022-07-27T05:44:13.805Z,40.82
2022-07-27T05:46:42.695Z,40.22
2022-07-27T05:49:12.045Z,40.00
2022-07-27T05:51:41.191Z,39.53
2022-07-27T05:54:09.968Z,39.13
2022-07-27T05:56:38.951Z,39.01
2022-07-27T05:59:07.802Z,39.08
2022-07-27T06:01:38.668Z,38.46
2022-07-27T06:04:07.776Z,38.13
2022-07-27T06:06:53.841Z,37.72
2022-07-27T06:09:22.712Z,36.73
2022-07-27T06:11:51.588Z,35.86
2022-07-27T06:14:20.456Z,35.16
2022-07-27T06:16:50.835Z,33.30
2022-07-27T06:19:19.671Z,31.59
2022-07-27T06:21:53.392Z,31.08
2022-07-27T06:24:23.475Z,30.73
2022-07-27T06:26:52.352Z,29.04
2022-07-27T06:29:21.167Z,28.40
2022-07-27T06:31:51.629Z,27.15
2022-07-27T06:34:21.503Z,26.84
2022-07-27T06:36:53.263Z,26.36
2022-07-27T06:39:22.016Z,25.29
2022-07-27T06:41:53.694Z,25.08
2022-07-27T06:44:26.783Z,24.30
2022-07-27T06:46:57.076Z,24.12
2022-07-27T06:49:26.010Z,23.63
2022-07-27T06:51:54.732Z,23.58
2022-07-27T06:54:24.708Z,23.54
2022-07-27T06:56:53.476Z,22.89
2022-07-27T06:59:22.269Z,21.94
2022-07-27T07:01:51.177Z,22.01
2022-07-27T07:04:24.711Z,21.87
2022-07-27T07:06:54.833Z,21.17
2022-07-27T07:09:24.645Z,20.65
2022-07-27T07:11:54.472Z,20.48
2022-07-27T07:14:24.191Z,20.97
2022-07-27T07:16:53.552Z,20.20
2022-07-27T07:19:24.130Z,19.77
2022-07-27T07:21:52.977Z,19.47
2022-07-27T07:24:21.847Z,19.29
2022-07-27T07:26:50.802Z,19.56
2022-07-27T07:29:19.689Z,19.94
2022-07-27T07:31:48.824Z,19.29
2022-07-27T07:34:17.677Z,19.25
2022-07-27T07:36:48.290Z,19.01
2022-07-27T07:39:17.464Z,18.38
2022-07-27T07:41:46.331Z,18.14
2022-07-27T07:44:15.099Z,18.82
2022-07-27T07:46:47.213Z,18.79
2022-07-27T07:49:17.158Z,18.54
2022-07-27T07:51:47.843Z,18.86
2022-07-27T07:54:16.730Z,18.62
2022-07-27T07:56:46.715Z,18.75
2022-07-27T07:59:16.411Z,18.61
2022-07-27T08:01:45.420Z,18.50
2022-07-27T08:04:14.544Z,18.15
2022-07-27T08:06:43.432Z,18.42
2022-07-27T08:09:17.163Z,18.69
2022-07-27T08:11:47.904Z,18.81
2022-07-27T08:14:16.821Z,18.90
2022-07-27T08:16:45.647Z,19.20
2022-07-27T08:19:17.967Z,19.09
2022-07-27T08:21:46.702Z,19.45
2022-07-27T08:24:17.064Z,20.12
2022-07-27T08:26:45.894Z,20.01
2022-07-27T08:29:14.900Z,20.49
2022-07-27T08:31:51.577Z,19.95
2022-07-27T08:34:22.962Z,20.77
2022-07-27T08:36:51.933Z,20.28
2022-07-27T08:40:05.513Z,20.94
2022-07-27T08:42:12.464Z,20.74
2022-07-27T08:44:42.805Z,21.16
2022-07-27T08:47:12.905Z,21.68
2022-07-27T08:49:43.905Z,20.85
2022-07-27T08:52:13.151Z,21.48
2022-07-27T08:54:43.583Z,21.79
2022-07-27T08:57:12.738Z,21.82
2022-07-27T08:59:41.431Z,21.96
2022-07-27T09:02:14.887Z,21.57
2022-07-27T09:04:43.843Z,21.20
2022-07-27T09:07:29.462Z,21.82
2022-07-27T09:10:01.661Z,22.23
2022-07-27T09:12:31.473Z,21.73
2022-07-27T09:15:07.991Z,22.20
2022-07-27T09:17:48.556Z,21.69
2022-07-27T09:20:21.290Z,21.98
2022-07-27T09:22:52.626Z,21.74
2022-07-27T09:25:52.249Z,21.73
2022-07-27T09:28:13.750Z,21.79
2022-07-27T09:30:44.191Z,21.06
2022-07-27T09:33:16.461Z,21.60
2022-07-27T09:35:46.556Z,21.22
2022-07-27T09:38:20.025Z,21.46
2022-07-27T09:41:00.908Z,21.20
2022-07-27T09:46:30.699Z,20.64
2022-07-27T09:49:00.383Z,20.65
2022-07-27T09:51:59.605Z,20.75
2022-07-27T09:54:18.851Z,20.89
2022-07-27T09:57:00.525Z,20.41
2022-07-27T09:59:31.481Z,20.59
2022-07-27T10:02:01.858Z,20.66
2022-07-27T10:04:34.348Z,20.35
2022-07-27T10:07:07.103Z,20.01
2022-07-27T10:09:39.828Z,20.29
2022-07-27T10:12:12.575Z,20.21
2022-07-27T10:14:41.467Z,19.89
2022-07-27T10:17:13.173Z,20.02
2022-07-27T10:19:47.533Z,20.04
2022-07-27T10:22:16.508Z,19.98
2022-07-27T10:24:48.733Z,19.33
2022-07-27T10:27:28.508Z,19.34
2022-07-27T10:29:58.190Z,19.34
2022-07-27T10:32:29.096Z,19.03
2022-07-27T10:34:58.046Z,18.64
2022-07-27T10:37:27.809Z,18.95
2022-07-27T10:40:12.239Z,19.27
2022-07-27T10:42:42.899Z,19.16
2022-07-27T10:45:13.274Z,19.04
2022-07-27T10:47:45.076Z,19.02
2022-07-27T10:50:32.194Z,19.15
2022-07-27T10:53:07.438Z,18.56
2022-07-27T10:55:46.483Z,19.02
2022-07-27T10:58:53.807Z,18.91
2022-07-27T11:01:24.140Z,18.88
2022-07-27T11:03:57.436Z,19.12
2022-07-27T11:06:36.273Z,18.84
2022-07-27T11:10:02.916Z,18.82
2022-07-27T11:12:07.085Z,18.20
2022-07-27T11:14:50.754Z,17.94
2022-07-27T11:17:50.950Z,18.10
2022-07-27T11:20:13.384Z,18.03
2022-07-27T11:23:26.656Z,18.08
2022-07-27T11:25:32.585Z,18.00
2022-07-27T11:28:08.556Z,18.32
2022-07-27T11:30:38.922Z,18.05
2022-07-27T11:33:08.276Z,17.69
2022-07-27T11:35:37.279Z,17.78
2022-07-27T11:38:07.976Z,17.69
2022-07-27T11:40:57.357Z,17.76
2022-07-27T11:43:42.093Z,17.56
2022-07-27T11:46:23.132Z,17.54
2022-07-27T11:49:06.676Z,17.61
2022-07-27T11:51:37.219Z,17.42
2022-07-27T11:54:08.442Z,17.37
2022-07-27T11:56:40.349Z,17.34
2022-07-27T11:59:15.486Z,17.35
2022-07-27T12:01:50.000Z,17.74
2022-07-27T12:04:25.074Z,17.50
2022-07-27T12:07:01.150Z,17.33
2022-07-27T12:09:37.947Z,17.04
2022-07-27T12:12:14.436Z,16.84
2022-07-27T12:14:46.131Z,16.44
2022-07-27T12:17:22.771Z,16.36
2022-07-27T12:19:54.461Z,16.69
2022-07-27T12:22:28.241Z,16.51
2022-07-27T12:24:58.191Z,16.75
2022-07-27T12:27:27.843Z,16.77
2022-07-27T12:30:15.674Z,16.49
2022-07-27T12:32:48.229Z,16.85
2022-07-27T12:35:24.948Z,16.56
2022-07-27T12:38:01.624Z,16.79
2022-07-27T12:40:31.512Z,16.54
2022-07-27T12:43:02.757Z,16.56
2022-07-27T12:45:34.437Z,16.15
2022-07-27T12:48:11.266Z,16.61
2022-07-27T12:50:41.226Z,16.41
2022-07-27T12:53:11.389Z,16.47
2022-07-27T12:55:40.689Z,16.55
2022-07-27T12:58:11.580Z,16.39
2022-07-27T13:00:40.437Z,16.08
2022-07-27T13:03:10.971Z,16.33
2022-07-27T13:05:39.802Z,15.74
2022-07-27T13:08:09.684Z,16.13
2022-07-27T13:10:39.790Z,16.22
2022-07-27T13:13:10.055Z,15.93
2022-07-27T13:15:39.060Z,15.62
2022-07-27T13:18:08.368Z,15.08
2022-07-27T13:20:39.023Z,15.13
2022-07-27T13:23:10.605Z,15.22
2022-07-27T13:25:43.225Z,15.47
2022-07-27T13:28:13.222Z,15.21
2022-07-27T13:30:42.062Z,14.57
2022-07-27T13:33:11.687Z,14.63
2022-07-27T13:35:43.010Z,14.66
2022-07-27T13:38:16.154Z,14.83
2022-07-27T13:40:45.852Z,14.85
2022-07-27T13:43:14.520Z,14.82
2022-07-27T13:45:43.885Z,14.64
2022-07-27T13:48:13.513Z,15.11
2022-07-27T13:50:43.944Z,15.45
2022-07-27T13:53:15.238Z,14.76
2022-07-27T13:55:45.784Z,15.71
2022-07-27T13:58:14.682Z,15.09
2022-07-27T14:00:43.798Z,15.39
2022-07-27T14:03:12.623Z,15.02
2022-07-27T14:05:49.267Z,14.69
2022-07-27T14:08:22.111Z,14.37
2022-07-27T14:10:51.303Z,14.33
2022-07-27T14:13:21.790Z,14.78
2022-07-27T14:15:54.209Z,14.67
2022-07-27T14:18:26.090Z,14.70
2022-07-27T14:20:55.848Z,15.14
2022-07-27T14:23:27.035Z,14.45
2022-07-27T14:25:57.129Z,14.85
2022-07-27T14:28:26.744Z,14.99
2022-07-27T14:30:56.897Z,15.21
2022-07-27T14:33:26.407Z,14.97
2022-07-27T14:36:02.906Z,15.32
2022-07-27T14:38:33.150Z,15.03
2022-07-27T14:41:02.470Z,16.07
2022-07-27T14:43:31.852Z,15.83
2022-07-27T14:46:01.077Z,15.93
2022-07-27T14:49:03.353Z,16.22
2022-07-27T14:51:18.692Z,16.36
2022-07-27T14:53:48.941Z,16.17
2022-07-27T14:56:18.056Z,16.23
2022-07-27T14:58:46.805Z,16.13
2022-07-27T15:01:16.955Z,15.93
2022-07-27T15:03:46.805Z,16.12
2022-07-27T15:06:15.539Z,16.16
2022-07-27T15:08:44.607Z,16.23
2022-07-27T15:11:14.859Z,16.22
2022-07-27T15:13:43.696Z,16.25
2022-07-27T15:16:13.030Z,15.79
2022-07-27T15:18:41.986Z,15.95
2022-07-27T15:21:12.953Z,15.78
2022-07-27T15:23:43.752Z,16.03
2022-07-27T15:26:13.458Z,16.09
2022-07-27T15:28:44.202Z,16.24
2022-07-27T15:31:13.908Z,16.58
2022-07-27T15:33:43.101Z,16.12
2022-07-27T15:36:31.529Z,16.62
2022-07-27T15:39:01.042Z,16.07
2022-07-27T15:41:29.922Z,16.14
2022-07-27T15:44:01.630Z,16.08
2022-07-27T15:46:32.297Z,16.34
2022-07-27T15:49:01.506Z,16.41
2022-07-27T15:51:30.340Z,15.87
2022-07-27T15:53:59.312Z,16.36
2022-07-27T15:56:28.180Z,16.57
2022-07-27T15:58:57.205Z,16.37
2022-07-27T16:01:35.202Z,16.81
2022-07-27T16:04:05.675Z,16.77
2022-07-27T16:06:39.179Z,16.49
2022-07-27T16:09:09.683Z,16.79
2022-07-27T16:11:39.380Z,16.99
2022-07-27T16:14:08.225Z,16.93
2022-07-27T16:16:38.649Z,16.85
2022-07-27T16:19:13.602Z,17.00
2022-07-27T16:21:53.762Z,16.59
2022-07-27T16:24:25.369Z,16.74
2022-07-27T16:26:54.281Z,16.72
2022-07-27T16:29:23.360Z,16.95
2022-07-27T16:31:58.218Z,16.77
2022-07-27T16:34:28.218Z,16.91
2022-07-27T16:36:58.301Z,16.80
2022-07-27T16:39:28.475Z,16.76
2022-07-27T16:41:58.790Z,17.01
2022-07-27T16:44:28.268Z,17.19
2022-07-27T16:46:59.255Z,17.71
2022-07-27T16:49:36.480Z,17.86
2022-07-27T16:52:06.109Z,17.74
2022-07-27T16:54:39.341Z,17.92
2022-07-27T16:57:09.586Z,18.14
2022-07-27T16:59:40.372Z,18.27
2022-07-27T17:02:11.616Z,18.37
2022-07-27T17:04:41.444Z,18.74
2022-07-27T17:07:12.969Z,18.47
2022-07-27T17:09:42.475Z,18.56
2022-07-27T17:12:11.879Z,18.59
2022-07-27T17:14:47.262Z,18.31
2022-07-27T17:17:19.827Z,18.62
2022-07-27T17:19:49.122Z,18.65
2022-07-27T17:22:18.105Z,18.63
2022-07-27T17:24:47.369Z,18.84
2022-07-27T17:27:16.616Z,18.86
2022-07-27T17:29:46.390Z,19.25
2022-07-27T17:32:15.526Z,19.43
2022-07-27T17:34:46.803Z,19.24
2022-07-27T17:37:16.892Z,19.71
2022-07-27T17:39:46.222Z,19.71
2022-07-27T17:42:16.113Z,19.57
2022-07-27T17:44:45.124Z,19.55
2022-07-27T17:47:14.340Z,19.86
2022-07-27T17:49:44.074Z,19.85
2022-07-27T17:52:14.791Z,20.31
2022-07-27T17:54:43.688Z,20.10
2022-07-27T17:57:14.492Z,20.65
2022-07-27T17:59:43.736Z,20.89
2022-07-27T18:02:13.877Z,21.03
2022-07-27T18:04:42.804Z,20.81
2022-07-27T18:07:11.604Z,21.21
2022-07-27T18:09:41.988Z,21.31
2022-07-27T18:12:11.101Z,21.20
2022-07-27T18:14:59.893Z,21.17
2022-07-27T18:17:28.904Z,21.70
2022-07-27T18:19:57.630Z,22.14
2022-07-27T18:22:26.776Z,22.48
2022-07-27T18:24:57.649Z,22.51
2022-07-27T18:27:26.582Z,22.74
2022-07-27T18:29:55.311Z,23.05
2022-07-27T18:32:24.112Z,22.68
2022-07-27T18:34:52.827Z,23.25
2022-07-27T18:37:21.694Z,23.03
2022-07-27T18:39:50.518Z,23.18
2022-07-27T18:42:20.811Z,23.31
2022-07-27T18:44:49.572Z,23.54
2022-07-27T18:47:18.364Z,23.64
2022-07-27T18:49:47.176Z,24.33
2022-07-27T18:52:16.003Z,23.85
2022-07-27T18:54:44.872Z,23.91
2022-07-27T18:57:13.760Z,24.44
2022-07-27T18:59:44.088Z,24.58
2022-07-27T19:02:13.039Z,25.15
2022-07-27T19:04:41.932Z,25.87
2022-07-27T19:07:11.410Z,25.76
2022-07-27T19:09:44.589Z,27.04
2022-07-27T19:12:14.465Z,27.33
2022-07-27T19:14:44.800Z,27.76
2022-07-27T19:17:19.508Z,27.91
2022-07-27T19:19:48.564Z,27.44
2022-07-27T19:22:17.492Z,27.83
2022-07-27T19:24:50.195Z,27.47
2022-07-27T19:27:23.367Z,27.79
2022-07-27T19:29:53.522Z,27.52
2022-07-27T19:32:22.845Z,27.85
2022-07-27T19:34:51.649Z,27.85
2022-07-27T19:37:20.594Z,28.16
2022-07-27T19:39:57.468Z,27.99
2022-07-27T19:42:31.652Z,28.09
2022-07-27T19:45:01.859Z,28.04
2022-07-27T19:47:30.713Z,28.37
2022-07-27T19:50:00.995Z,28.30
2022-07-27T19:52:30.060Z,28.14
2022-07-27T19:54:58.807Z,28.21
2022-07-27T19:57:27.768Z,28.65
2022-07-27T19:59:57.028Z,29.03
2022-07-27T20:02:27.474Z,29.19
2022-07-27T20:04:56.281Z,29.17
2022-07-27T20:07:25.155Z,29.72
2022-07-27T20:09:53.886Z,29.56
2022-07-27T20:12:22.972Z,30.10
2022-07-27T20:14:51.713Z,30.42
2022-07-27T20:17:20.661Z,30.46
2022-07-27T20:19:51.013Z,31.03
2022-07-27T20:22:19.937Z,31.38
2022-07-27T20:24:48.669Z,31.47
2022-07-27T20:27:17.632Z,32.13
2022-07-27T20:29:46.416Z,31.87
2022-07-27T20:32:15.247Z,32.43
2022-07-27T20:34:44.027Z,32.00
2022-07-27T20:37:14.374Z,32.05
2022-07-27T20:39:43.221Z,32.38
2022-07-27T20:42:12.211Z,32.22
2022-07-27T20:44:41.103Z,31.94
2022-07-27T20:47:09.916Z,31.77
2022-07-27T20:49:38.712Z,31.78
2022-07-27T20:52:08.143Z,31.80
2022-07-27T20:54:38.607Z,31.78
2022-07-27T20:57:07.822Z,32.00
2022-07-27T20:59:36.691Z,32.55
2022-07-27T21:02:05.612Z,32.88
2022-07-27T21:04:34.541Z,33.39
2022-07-27T21:07:03.423Z,33.49
2022-07-27T21:09:32.953Z,33.51
2022-07-27T21:12:03.404Z,33.22
2022-07-27T21:14:32.220Z,33.44
2022-07-27T21:17:01.066Z,33.62
2022-07-27T21:19:29.889Z,33.82
2022-07-27T21:21:58.773Z,34.11
2022-07-27T21:24:29.587Z,33.89
2022-07-27T21:27:04.326Z,33.48
2022-07-27T21:29:35.088Z,33.46
2022-07-27T21:32:04.005Z,33.57
2022-07-27T21:34:33.485Z,33.46
2022-07-27T21:37:02.676Z,33.68
2022-07-27T21:39:31.925Z,34.18
2022-07-27T21:42:02.312Z,34.39
2022-07-27T21:44:31.614Z,34.79
2022-07-27T21:47:02.233Z,35.12
2022-07-27T21:49:34.436Z,35.29
2022-07-27T21:52:03.764Z,36.04
2022-07-27T21:54:32.561Z,36.21
2022-07-27T21:57:01.444Z,36.63
2022-07-27T21:59:30.271Z,36.70
2022-07-27T22:02:01.129Z,36.88
2022-07-27T22:04:31.605Z,36.72
2022-07-27T22:07:00.564Z,36.14
2022-07-27T22:09:29.492Z,36.04
2022-07-27T22:11:58.552Z,36.05
2022-07-27T22:14:27.490Z,36.35
2022-07-27T22:16:56.878Z,36.16
2022-07-27T22:19:25.844Z,36.24
2022-07-27T22:21:57.311Z,36.35
2022-07-27T22:24:26.131Z,36.41
2022-07-27T22:26:54.942Z,36.25
2022-07-27T22:29:23.880Z,36.08
2022-07-27T22:31:52.855Z,36.49
2022-07-27T22:34:21.703Z,36.36
2022-07-27T22:36:50.518Z,36.60
2022-07-27T22:39:21.730Z,36.60
2022-07-27T22:41:50.655Z,36.48
2022-07-27T22:44:20.536Z,36.34
2022-07-27T22:46:50.632Z,36.40
2022-07-27T22:49:19.483Z,36.59
2022-07-27T22:51:52.485Z,37.01
2022-07-27T22:54:24.756Z,36.67
2022-07-27T22:56:53.671Z,36.72
2022-07-27T22:59:23.076Z,36.79
2022-07-27T23:01:51.976Z,37.01
2022-07-27T23:04:20.843Z,36.78
2022-07-27T23:06:49.760Z,37.01
2022-07-27T23:09:18.938Z,37.04
2022-07-27T23:11:49.237Z,37.09
2022-07-27T23:14:19.183Z,37.43
2022-07-27T23:16:48.223Z,37.24
2022-07-27T23:19:17.161Z,36.64
2022-07-27T23:21:45.978Z,36.02
2022-07-27T23:24:15.783Z,35.95
2022-07-27T23:26:49.463Z,36.11
2022-07-27T23:29:18.351Z,36.63
2022-07-27T23:31:47.180Z,37.11
2022-07-27T23:34:17.186Z,37.72
2022-07-27T23:36:46.128Z,38.23
2022-07-27T23:39:15.078Z,38.73
2022-07-27T23:41:49.412Z,38.89
2022-07-27T23:44:21.202Z,39.53
2022-07-27T23:46:50.591Z,39.66
2022-07-27T23:49:19.640Z,40.10
2022-07-27T23:51:48.427Z,39.98
2022-07-27T23:54:17.616Z,39.94
2022-07-27T23:56:46.531Z,39.83
2022-07-27T23:59:15.449Z,39.78
